AEA62PZ LEMD-GCLP
Flight info
| Callsign | AEA62PZ |
|---|---|
| Flight time | N/A |
| Altitude | 37000 |
| Route | VTB DCT INPAN DCT CRISA DCT HIJ DCT SVL DCT CLANA DCT KORNO UN857 TERTO |
| Aircraft | A332/H-SDE3GHIJ2J3J5M1RVWXY/LB2D1 |
Departure
| Time | 2026-05-06 13:10 |
|---|---|
| Airport | Adolfo Suárez Madrid–Barajas Airport (LEMD) |
Arrival
| Time | N/A |
|---|---|
| Airport | Gran Canaria Airport (GCLP) |
| Time | Latitude | Longitude | Altitude | Speed | Heading |
|---|---|---|---|---|---|
| 2026-05-06 12:12 | 40.46906 | -3.56770 | 1979 ft | 0 kts | 279° |
| 2026-05-06 12:55 | 40.46906 | -3.56769 | 1979 ft | 1 kts | 279° |
| 2026-05-06 12:56 | 40.46902 | -3.56738 | 1979 ft | 4 kts | 279° |
| 2026-05-06 12:56 | 40.46896 | -3.56704 | 1979 ft | 4 kts | 295° |
| 2026-05-06 12:56 | 40.46881 | -3.56678 | 1982 ft | 4 kts | 331° |
| 2026-05-06 12:56 | 40.46859 | -3.56670 | 1980 ft | 2 kts | 7° |
| 2026-05-06 12:57 | 40.46857 | -3.56671 | 1980 ft | 1 kts | 7° |
| 2026-05-06 12:57 | 40.46854 | -3.56671 | 1981 ft | 0 kts | 7° |
| 2026-05-06 13:00 | 40.46857 | -3.56671 | 1982 ft | 3 kts | 7° |
| 2026-05-06 13:00 | 40.46901 | -3.56667 | 1982 ft | 7 kts | 0° |
| 2026-05-06 13:00 | 40.46952 | -3.56683 | 1984 ft | 8 kts | 335° |
| 2026-05-06 13:00 | 40.46999 | -3.56721 | 1985 ft | 8 kts | 326° |
| 2026-05-06 13:01 | 40.47042 | -3.56763 | 1986 ft | 7 kts | 322° |
| 2026-05-06 13:01 | 40.47077 | -3.56802 | 1989 ft | 5 kts | 318° |
| 2026-05-06 13:01 | 40.47102 | -3.56832 | 1990 ft | 6 kts | 318° |
| 2026-05-06 13:01 | 40.47144 | -3.56876 | 1991 ft | 11 kts | 322° |
| 2026-05-06 13:02 | 40.47225 | -3.56922 | 1993 ft | 15 kts | 353° |
| 2026-05-06 13:02 | 40.47291 | -3.56902 | 1991 ft | 0 kts | 28° |
| 2026-05-06 13:02 | 40.47292 | -3.56901 | 1994 ft | 1 kts | 29° |
| 2026-05-06 13:02 | 40.47313 | -3.56878 | 1991 ft | 5 kts | 47° |
| 2026-05-06 13:03 | 40.47350 | -3.56847 | 1993 ft | 10 kts | 9° |
| 2026-05-06 13:03 | 40.47419 | -3.56900 | 1994 ft | 12 kts | 321° |
| 2026-05-06 13:03 | 40.47485 | -3.56968 | 1995 ft | 12 kts | 321° |
| 2026-05-06 13:03 | 40.47549 | -3.57035 | 1997 ft | 12 kts | 322° |
| 2026-05-06 13:04 | 40.47610 | -3.57097 | 2000 ft | 11 kts | 322° |
| 2026-05-06 13:04 | 40.47680 | -3.57167 | 2000 ft | 15 kts | 322° |
| 2026-05-06 13:04 | 40.47772 | -3.57261 | 2001 ft | 19 kts | 322° |
| 2026-05-06 13:04 | 40.47875 | -3.57367 | 2005 ft | 18 kts | 322° |
| 2026-05-06 13:05 | 40.47984 | -3.57477 | 2002 ft | 21 kts | 322° |
| 2026-05-06 13:05 | 40.48105 | -3.57600 | 1999 ft | 23 kts | 322° |
| 2026-05-06 13:05 | 40.48240 | -3.57737 | 1999 ft | 25 kts | 322° |
| 2026-05-06 13:05 | 40.48386 | -3.57875 | 1995 ft | 23 kts | 327° |
| 2026-05-06 13:06 | 40.48501 | -3.57973 | 2001 ft | 17 kts | 328° |
| 2026-05-06 13:06 | 40.48596 | -3.58044 | 2005 ft | 15 kts | 341° |
| 2026-05-06 13:06 | 40.48703 | -3.58049 | 2004 ft | 16 kts | 1° |
| 2026-05-06 13:06 | 40.48816 | -3.58046 | 2006 ft | 16 kts | 11° |
| 2026-05-06 13:07 | 40.48860 | -3.57926 | 2002 ft | 17 kts | 90° |
| 2026-05-06 13:07 | 40.48860 | -3.57750 | 1996 ft | 18 kts | 89° |
| 2026-05-06 13:07 | 40.48887 | -3.57626 | 1994 ft | 13 kts | 30° |
| 2026-05-06 13:07 | 40.48978 | -3.57619 | 1994 ft | 14 kts | 0° |
| 2026-05-06 13:08 | 40.49074 | -3.57618 | 1993 ft | 14 kts | 360° |
| 2026-05-06 13:08 | 40.49170 | -3.57600 | 1995 ft | 14 kts | 36° |
| 2026-05-06 13:08 | 40.49219 | -3.57491 | 1992 ft | 14 kts | 64° |
| 2026-05-06 13:08 | 40.49268 | -3.57453 | 1988 ft | 0 kts | 1° |
| 2026-05-06 13:09 | 40.49278 | -3.57453 | 1987 ft | 7 kts | 359° |
| 2026-05-06 13:09 | 40.49478 | -3.57454 | 1987 ft | 59 kts | 0° |
| 2026-05-06 13:09 | 40.50093 | -3.57457 | 1993 ft | 116 kts | 359° |
| 2026-05-06 13:10 | 40.51063 | -3.57463 | 1998 ft | 161 kts | 359° |
| 2026-05-06 13:10 | 40.52264 | -3.57456 | 2371 ft | 175 kts | 360° |
| 2026-05-06 13:10 | 40.53495 | -3.57471 | 3003 ft | 178 kts | 355° |
| 2026-05-06 13:10 | 40.54674 | -3.57873 | 3777 ft | 174 kts | 334° |
| 2026-05-06 13:11 | 40.55721 | -3.58770 | 4291 ft | 188 kts | 322° |
| 2026-05-06 13:11 | 40.56789 | -3.59906 | 4663 ft | 207 kts | 320° |
| 2026-05-06 13:11 | 40.57948 | -3.61180 | 5037 ft | 226 kts | 319° |
| 2026-05-06 13:11 | 40.59173 | -3.62567 | 5633 ft | 237 kts | 318° |
| 2026-05-06 13:12 | 40.60408 | -3.63992 | 6609 ft | 234 kts | 318° |
| 2026-05-06 13:12 | 40.61642 | -3.65377 | 7586 ft | 232 kts | 320° |
| 2026-05-06 13:12 | 40.62807 | -3.66922 | 8214 ft | 249 kts | 306° |
| 2026-05-06 13:12 | 40.63523 | -3.69092 | 8674 ft | 270 kts | 277° |
| 2026-05-06 13:13 | 40.63231 | -3.71546 | 9432 ft | 280 kts | 244° |
| 2026-05-06 13:13 | 40.61932 | -3.73456 | 10240 ft | 288 kts | 213° |
| 2026-05-06 13:13 | 40.59978 | -3.74311 | 10643 ft | 311 kts | 183° |
| 2026-05-06 13:13 | 40.57794 | -3.73809 | 11081 ft | 329 kts | 160° |
| 2026-05-06 13:14 | 40.55571 | -3.72959 | 11780 ft | 336 kts | 174° |
| 2026-05-06 13:14 | 40.53248 | -3.73298 | 12584 ft | 340 kts | 198° |
| 2026-05-06 13:14 | 40.51082 | -3.74571 | 13425 ft | 344 kts | 208° |
| 2026-05-06 13:14 | 40.49032 | -3.76223 | 14210 ft | 348 kts | 213° |
| 2026-05-06 13:15 | 40.46997 | -3.77988 | 14901 ft | 352 kts | 213° |
| 2026-05-06 13:15 | 40.44931 | -3.79730 | 15606 ft | 355 kts | 213° |
| 2026-05-06 13:15 | 40.42828 | -3.81396 | 16312 ft | 358 kts | 211° |
| 2026-05-06 13:15 | 40.40648 | -3.83020 | 16998 ft | 362 kts | 210° |
| 2026-05-06 13:16 | 40.38429 | -3.84598 | 17703 ft | 364 kts | 210° |
| 2026-05-06 13:16 | 40.36177 | -3.86157 | 18378 ft | 368 kts | 209° |
| 2026-05-06 13:16 | 40.33899 | -3.87715 | 18972 ft | 370 kts | 209° |
| 2026-05-06 13:16 | 40.31611 | -3.89274 | 19578 ft | 372 kts | 210° |
| 2026-05-06 13:17 | 40.29307 | -3.90844 | 20186 ft | 374 kts | 210° |
| 2026-05-06 13:17 | 40.26993 | -3.92425 | 20794 ft | 375 kts | 210° |
| 2026-05-06 13:17 | 40.24671 | -3.94014 | 21388 ft | 377 kts | 210° |
| 2026-05-06 13:17 | 40.23128 | -3.95071 | 21785 ft | 379 kts | 210° |